Time;durP1;ratioP1;P1;durP2;ratioP2;P2;SDS_P1;SDS_P2;PMS_P1;PMS_P2;Temp;Humidity;BMP_temperature;BMP_pressure;BME280_temperature;BME280_humidity;BME280_pressure;Samples;Min_cycle;Max_cycle;Signal;HPM_P1;HPM_P2
2022/12/02 00:02:27;;;;;;;;;41.50;35.75;;;;;10.34;61.40;102088.06;4975568;28;47395;-72
2022/12/02 00:05:10;;;;;;;;;27.50;27.50;;;;;10.34;61.45;102082.72;4992908;28;45468;-72
2022/12/02 00:07:36;;;;;;;;;24.25;17.00;;;;;10.14;61.90;102080.78;4993471;28;45590;-72
2022/12/02 00:10:01;;;;;;;;;34.50;32.75;;;;;10.25;62.04;102080.38;4993066;28;45422;-72
2022/12/02 00:12:30;;;;;;;;;37.00;32.00;;;;;10.34;61.94;102080.06;4993330;28;46077;-72
2022/12/02 00:14:59;;;;;;;;;33.50;32.25;;;;;10.40;61.83;102076.31;4993179;28;45480;-72
2022/12/02 00:17:25;;;;;;;;;40.50;36.25;;;;;10.49;61.68;102072.44;4993691;28;45416;-72
2022/12/02 00:19:51;;;;;;;;;44.75;37.00;;;;;10.24;62.32;102076.84;4993551;28;45260;-71
2022/12/02 00:22:18;;;;;;;;;30.00;28.75;;;;;10.25;62.46;102075.06;4993047;28;46290;-72
2022/12/02 00:24:43;;;;;;;;;34.50;34.50;;;;;10.40;62.25;102068.31;4992765;28;45499;-72
2022/12/02 00:27:09;;;;;;;;;51.25;39.00;;;;;10.17;62.86;102078.00;4975437;28;45576;-71
2022/12/02 00:29:34;;;;;;;;;36.25;32.25;;;;;9.93;63.63;102064.63;4975564;28;45510;-72
2022/12/02 00:31:59;;;;;;;;;49.00;38.00;;;;;10.02;63.32;102063.41;4991739;28;46364;-72
2022/12/02 00:34:25;;;;;;;;;41.75;35.75;;;;;10.06;64.11;102061.53;4992189;28;45463;-71
2022/12/02 00:36:50;;;;;;;;;41.75;37.00;;;;;10.19;63.18;102064.59;4975299;28;45447;-72
2022/12/02 00:39:15;;;;;;;;;44.25;35.50;;;;;10.21;63.20;102060.09;4992885;28;45434;-72
2022/12/02 00:41:41;;;;;;;;;53.00;40.75;;;;;9.78;62.96;101961.22;4992548;28;46014;-72
2022/12/02 00:46:50;;;;;;;;;44.50;35.50;;;;;10.15;63.71;102047.84;4992757;28;45344;-71
2022/12/02 00:49:15;;;;;;;;;50.75;39.00;;;;;10.25;63.00;102051.03;4992913;28;45378;-72
2022/12/02 00:51:42;;;;;;;;;48.00;38.25;;;;;10.08;63.40;102049.00;4991946;28;45567;-71
2022/12/02 00:54:09;;;;;;;;;40.25;35.00;;;;;10.12;63.24;102034.63;4992483;28;45495;-72
2022/12/02 00:56:35;;;;;;;;;45.50;39.25;;;;;9.68;63.29;101990.00;4994629;28;45533;-72
2022/12/02 00:59:01;;;;;;;;;37.75;35.50;;;;;9.97;63.03;102035.19;4996338;28;45539;-72
2022/12/02 01:01:27;;;;;;;;;33.25;32.00;;;;;9.63;63.93;101994.63;4996410;28;45667;-72
2022/12/02 01:03:53;;;;;;;;;40.50;36.00;;;;;9.86;64.22;102046.25;4995377;28;45561;-72
2022/12/02 01:06:18;;;;;;;;;45.25;38.25;;;;;9.62;64.73;102034.66;4995902;28;45455;-71
2022/12/02 01:08:44;;;;;;;;;44.75;38.50;;;;;9.70;64.32;102017.44;4995760;28;45449;-72
2022/12/02 01:11:11;;;;;;;;;50.00;41.25;;;;;9.89;63.95;102035.47;4995904;28;46492;-73
2022/12/02 01:13:37;;;;;;;;;49.50;40.00;;;;;9.32;64.43;101954.88;4995818;28;45347;-72
2022/12/02 01:16:03;;;;;;;;;38.00;31.00;;;;;9.98;63.89;102035.13;4996288;28;45418;-72
2022/12/02 01:18:28;;;;;;;;;49.00;38.50;;;;;9.96;63.74;102036.09;4996129;28;45525;-72
2022/12/02 01:20:54;;;;;;;;;47.75;40.00;;;;;9.90;63.98;102037.22;4995772;28;45670;-72
2022/12/02 01:23:19;;;;;;;;;32.50;29.25;;;;;9.95;63.81;102027.25;4995450;28;45455;-72
2022/12/02 01:25:47;;;;;;;;;41.50;35.50;;;;;9.94;63.40;102001.50;4996059;28;45556;-73
2022/12/02 01:28:12;;;;;;;;;42.25;35.75;;;;;10.05;63.22;102033.97;4978188;28;45486;-72
2022/12/02 01:30:37;;;;;;;;;41.75;35.25;;;;;9.96;63.43;102033.44;4996091;28;46178;-73
2022/12/02 01:33:03;;;;;;;;;44.75;35.50;;;;;10.01;63.54;102034.16;4995777;28;45380;-72
2022/12/02 01:35:28;;;;;;;;;37.50;34.75;;;;;9.99;63.47;102034.22;4995657;28;45640;-72
2022/12/02 01:37:53;;;;;;;;;49.75;39.00;;;;;10.10;63.16;102039.16;4995985;28;45439;-71
2022/12/02 01:40:20;;;;;;;;;46.00;37.75;;;;;9.56;63.36;101977.97;4995762;28;46401;-73
2022/12/02 01:42:47;;;;;;;;;48.00;39.00;;;;;9.71;63.67;101968.56;4995623;28;45400;-72
2022/12/02 01:45:12;;;;;;;;;54.75;43.00;;;;;9.63;63.05;101949.31;4995632;28;45337;-71
2022/12/02 01:47:39;;;;;;;;;49.50;41.00;;;;;10.00;63.19;102038.63;4995311;28;45469;-72
2022/12/02 01:50:07;;;;;;;;;43.25;36.75;;;;;10.05;63.33;102039.31;4995534;28;46039;-72
2022/12/02 01:52:34;;;;;;;;;51.00;38.50;;;;;10.17;62.64;102035.31;4995108;28;45540;-72
2022/12/02 01:54:59;;;;;;;;;47.75;38.00;;;;;10.16;62.84;102038.06;4995445;28;45397;-72
2022/12/02 01:57:27;;;;;;;;;40.25;34.00;;;;;10.05;63.12;102043.78;4995307;28;45583;-72
2022/12/02 01:59:53;;;;;;;;;52.75;40.00;;;;;9.86;63.39;102038.25;4995343;28;46241;-71
2022/12/02 02:02:34;;;;;;;;;49.75;36.25;;;;;9.87;63.71;102032.00;4995297;28;45412;-72
2022/12/02 02:05:05;;;;;;;;;49.25;40.25;;;;;9.89;63.41;102041.69;4995183;28;45454;-72
2022/12/02 02:07:31;;;;;;;;;54.25;41.25;;;;;9.85;64.33;102049.81;4993555;28;45583;-72
2022/12/02 02:09:57;;;;;;;;;23.50;20.50;;;;;9.77;63.70;102042.97;4993812;28;46285;-72
2022/12/02 02:12:24;;;;;;;;;43.25;38.25;;;;;9.64;64.10;102039.00;4995047;28;45469;-72
2022/12/02 02:14:50;;;;;;;;;41.25;36.25;;;;;9.40;64.09;101966.13;4995226;28;45672;-72
2022/12/02 02:17:16;;;;;;;;;44.25;37.50;;;;;9.92;63.34;102008.72;4995364;28;45391;-72
2022/12/02 02:19:43;;;;;;;;;46.50;39.50;;;;;10.22;62.58;102029.84;4994756;28;46347;-72
2022/12/02 02:22:17;;;;;;;;;45.00;36.00;;;;;9.52;62.62;101915.09;4994940;28;45380;-73
2022/12/02 02:24:42;;;;;;;;;38.00;34.25;;;;;10.21;62.03;102022.75;4994878;28;45568;-72
2022/12/02 02:27:08;;;;;;;;;44.50;35.25;;;;;10.12;62.45;102017.75;4994972;28;45449;-73
2022/12/02 02:29:33;;;;;;;;;37.75;32.50;;;;;10.12;62.88;102015.09;4994744;28;46124;-72
2022/12/02 02:31:59;;;;;;;;;41.25;35.25;;;;;9.89;62.97;101976.81;4994842;28;45502;-72
2022/12/02 02:34:24;;;;;;;;;45.00;38.00;;;;;10.33;62.73;102011.63;4994610;28;45435;-72
2022/12/02 02:36:50;;;;;;;;;42.75;36.75;;;;;10.27;61.53;102009.16;4994649;28;45420;-72
2022/12/02 02:39:16;;;;;;;;;46.00;37.25;;;;;10.22;61.86;101995.16;4994063;28;46930;-72
2022/12/02 02:41:41;;;;;;;;;25.75;24.25;;;;;10.23;61.84;102005.78;4992617;28;45653;-72
2022/12/02 02:44:07;;;;;;;;;43.75;38.00;;;;;10.12;62.08;102009.75;4983828;28;45457;-72
2022/12/02 02:46:33;;;;;;;;;43.25;35.00;;;;;10.05;62.38;101993.13;4974992;28;45555;-72
2022/12/02 02:48:58;;;;;;;;;36.75;32.50;;;;;10.17;62.30;101999.81;4974255;28;45424;-73
2022/12/02 02:51:23;;;;;;;;;40.00;34.25;;;;;9.88;62.24;101959.97;4980752;28;45495;-73
2022/12/02 02:53:49;;;;;;;;;33.75;30.50;;;;;10.26;62.09;102000.31;4990722;28;45635;-72
2022/12/02 02:56:15;;;;;;;;;39.25;36.50;;;;;9.68;61.54;101880.75;4991154;28;45534;-72
2022/12/02 02:58:41;;;;;;;;;49.75;36.75;;;;;10.52;61.67;101997.63;4986653;28;45426;-72
2022/12/02 03:01:09;;;;;;;;;50.50;38.75;;;;;10.18;61.16;101969.53;4992835;28;45477;-72
2022/12/02 03:03:43;;;;;;;;;35.25;33.75;;;;;10.34;61.40;101994.69;4993665;28;45651;-72
2022/12/02 03:06:11;;;;;;;;;34.25;31.00;;;;;10.05;61.05;101955.78;4992386;28;45487;-72
2022/12/02 03:08:39;;;;;;;;;35.75;33.75;;;;;10.32;62.39;101995.69;4980563;28;45627;-72
2022/12/02 03:11:05;;;;;;;;;35.25;30.50;;;;;10.44;61.78;101988.09;4972384;28;45697;-73
2022/12/02 03:13:33;;;;;;;;;38.00;35.25;;;;;10.52;61.24;101986.94;4974419;28;45405;-72
2022/12/02 03:16:00;;;;;;;;;38.25;35.25;;;;;10.65;61.57;101981.97;4979267;28;45438;-72
2022/12/02 03:18:26;;;;;;;;;38.25;27.50;;;;;10.63;61.16;101986.50;4993782;28;45677;-72
2022/12/02 03:20:52;;;;;;;;;40.50;36.25;;;;;10.50;60.15;101962.09;4993481;28;45448;-72
2022/12/02 03:23:17;;;;;;;;;39.25;32.00;;;;;10.65;61.11;101976.63;4982796;28;45423;-72
2022/12/02 03:25:43;;;;;;;;;38.75;35.75;;;;;10.63;60.57;101968.69;4991118;28;45832;-72
2022/12/02 03:28:10;;;;;;;;;36.50;34.25;;;;;10.39;60.58;101976.75;4976410;28;47139;-72
2022/12/02 03:30:37;;;;;;;;;34.00;30.00;;;;;10.07;61.37;101943.28;4993859;28;45420;-72
2022/12/02 03:33:02;;;;;;;;;39.75;35.75;;;;;10.29;60.76;101948.66;4993379;28;45417;-73
2022/12/02 03:35:28;;;;;;;;;42.00;37.75;;;;;10.27;60.79;101972.72;4989172;28;45448;-72
2022/12/02 03:37:53;;;;;;;;;38.25;34.50;;;;;10.38;60.99;101975.00;4987967;28;45923;-72
2022/12/02 03:40:19;;;;;;;;;44.50;36.50;;;;;10.56;60.72;101953.88;4993683;28;45414;-72
2022/12/02 03:42:44;;;;;;;;;36.00;34.00;;;;;10.68;61.38;101950.69;4993185;28;45624;-72
2022/12/02 03:45:11;;;;;;;;;47.00;35.00;;;;;10.69;59.74;101952.44;4993921;28;45468;-72
2022/12/02 03:47:36;;;;;;;;;40.25;38.25;;;;;10.56;59.77;101959.22;4992942;28;46404;-72
2022/12/02 03:50:03;;;;;;;;;38.50;32.75;;;;;10.52;60.76;101954.94;4993527;28;45533;-72
2022/12/02 03:52:29;;;;;;;;;37.75;35.00;;;;;10.62;60.72;101945.59;4987260;28;45832;-72
2022/12/02 03:54:55;;;;;;;;;36.25;33.50;;;;;10.51;59.98;101953.19;4991410;28;45383;-72
2022/12/02 03:57:20;;;;;;;;;41.25;30.75;;;;;10.40;60.42;101958.94;4978596;28;46060;-72
2022/12/02 03:59:45;;;;;;;;;41.50;34.25;;;;;10.57;61.18;101947.63;4993633;28;45446;-72
2022/12/02 04:02:11;;;;;;;;;38.75;34.00;;;;;10.53;60.26;101946.84;4993352;28;45619;-73
2022/12/02 04:04:36;;;;;;;;;36.00;29.25;;;;;10.32;60.09;101950.34;4993406;28;45468;-72
2022/12/02 04:07:01;;;;;;;;;39.50;34.25;;;;;10.34;60.88;101952.03;4993228;28;45452;-72
2022/12/02 04:09:27;;;;;;;;;47.50;36.25;;;;;10.52;60.41;101939.78;4993317;28;45454;-72
2022/12/02 04:11:52;;;;;;;;;28.50;23.25;;;;;10.39;60.69;101939.41;4993300;28;45424;-72
2022/12/02 04:14:17;;;;;;;;;47.00;37.25;;;;;10.37;60.68;101932.41;4992563;28;45336;-72
2022/12/02 04:16:43;;;;;;;;;39.75;32.50;;;;;10.31;60.77;101936.16;4992874;28;47110;-72
2022/12/02 04:19:08;;;;;;;;;39.75;34.75;;;;;10.43;60.88;101918.78;4993228;28;45478;-72
2022/12/02 04:21:33;;;;;;;;;42.50;33.50;;;;;10.59;61.61;101919.03;4993309;28;45466;-72
2022/12/02 04:23:58;;;;;;;;;41.75;35.25;;;;;10.49;60.79;101917.72;4993386;28;45698;-72
2022/12/02 04:26:24;;;;;;;;;41.75;36.00;;;;;10.58;60.18;101917.31;4993432;28;46165;-72
2022/12/02 04:28:49;;;;;;;;;44.75;34.00;;;;;10.44;60.63;101905.38;4993271;28;45393;-72
2022/12/02 04:31:14;;;;;;;;;37.50;32.50;;;;;10.19;60.48;101861.94;4992680;28;45394;-72
2022/12/02 04:33:40;;;;;;;;;46.50;34.00;;;;;10.33;60.43;101886.25;4992907;28;45371;-72
2022/12/02 04:36:05;;;;;;;;;43.25;34.00;;;;;10.65;60.81;101912.59;4993451;28;45439;-72
2022/12/02 04:38:30;;;;;;;;;42.75;36.25;;;;;10.74;60.66;101913.09;4993204;28;45398;-72
2022/12/02 04:40:56;;;;;;;;;41.00;32.75;;;;;10.59;60.39;101921.72;4993135;28;45351;-72
2022/12/02 04:43:21;;;;;;;;;45.50;36.25;;;;;10.60;60.75;101915.47;4993358;28;45498;-72
2022/12/02 04:45:47;;;;;;;;;46.00;35.75;;;;;10.58;60.10;101919.97;4992334;28;46014;-72
2022/12/02 04:48:12;;;;;;;;;46.00;37.25;;;;;10.56;60.46;101911.19;4993204;28;45416;-73
2022/12/02 04:50:37;;;;;;;;;39.00;35.00;;;;;10.47;60.73;101906.22;4993034;28;45328;-72
2022/12/02 04:53:03;;;;;;;;;43.00;38.25;;;;;10.59;60.42;101905.72;4992732;28;45507;-73
2022/12/02 04:55:28;;;;;;;;;39.00;36.25;;;;;10.54;60.25;101900.56;4992992;28;45398;-72
2022/12/02 04:57:53;;;;;;;;;39.50;34.00;;;;;10.66;60.75;101915.22;4992551;28;45401;-72
2022/12/02 05:00:19;;;;;;;;;25.50;22.50;;;;;10.50;60.47;101893.63;4992679;28;45846;-72
2022/12/02 05:02:44;;;;;;;;;43.75;35.50;;;;;10.46;60.78;101901.78;4993036;28;45368;-72
2022/12/02 05:05:10;;;;;;;;;47.25;38.00;;;;;10.61;61.56;101901.19;4992392;28;45481;-72
2022/12/02 05:07:35;;;;;;;;;49.50;37.50;;;;;10.30;60.89;101841.06;4992758;28;45447;-72
2022/12/02 05:10:01;;;;;;;;;44.75;38.75;;;;;10.56;60.23;101890.69;4992658;28;45343;-72
2022/12/02 05:12:27;;;;;;;;;24.25;20.50;;;;;9.44;60.97;101757.34;4992477;28;45503;-72
2022/12/02 05:14:52;;;;;;;;;31.75;27.75;;;;;10.26;61.12;101890.97;4974709;28;46326;-72
2022/12/02 05:17:18;;;;;;;;;42.75;37.75;;;;;10.27;60.86;101890.03;4991791;28;45320;-72
2022/12/02 05:19:43;;;;;;;;;46.50;38.25;;;;;10.27;61.29;101891.81;4992673;28;45443;-72
2022/12/02 05:22:08;;;;;;;;;45.25;37.50;;;;;10.06;61.68;101878.41;4992638;28;45312;-72
2022/12/02 05:24:34;;;;;;;;;43.25;36.50;;;;;10.02;61.74;101879.47;4992561;28;45661;-72
2022/12/02 05:27:00;;;;;;;;;44.50;38.00;;;;;9.67;61.68;101809.75;4992194;28;45362;-70
2022/12/02 05:29:25;;;;;;;;;44.75;39.50;;;;;10.02;61.44;101867.94;4992496;28;45746;-73
2022/12/02 05:31:51;;;;;;;;;38.75;32.00;;;;;10.05;61.97;101876.66;4992280;28;45423;-72
2022/12/02 05:34:17;;;;;;;;;43.25;33.25;;;;;10.12;61.42;101852.44;4988697;28;45543;-73
2022/12/02 05:36:42;;;;;;;;;52.75;38.75;;;;;10.29;61.27;101868.66;4980967;28;45445;-73
2022/12/02 05:39:07;;;;;;;;;45.25;38.75;;;;;10.16;61.19;101864.72;4992436;28;45498;-72
2022/12/02 05:41:33;;;;;;;;;42.50;37.00;;;;;9.92;61.91;101857.63;4992512;28;45680;-72
2022/12/02 05:44:17;;;;;;;;;42.75;37.25;;;;;9.68;61.88;101815.97;4994387;28;46691;-73
2022/12/02 05:46:43;;;;;;;;;44.50;38.00;;;;;10.01;61.98;101869.72;4995680;28;45478;-72
2022/12/02 05:49:21;;;;;;;;;30.00;28.00;;;;;9.93;61.92;101864.72;4994680;28;45503;-73
2022/12/02 05:51:58;;;;;;;;;36.75;35.50;;;;;9.90;62.33;101872.81;4995444;28;45470;-73
2022/12/02 05:54:25;;;;;;;;;49.75;39.50;;;;;10.06;61.99;101870.41;4995305;28;45798;-72
2022/12/02 05:56:50;;;;;;;;;41.50;35.00;;;;;10.22;61.68;101861.84;4995378;28;45477;-73
2022/12/02 05:59:18;;;;;;;;;24.25;18.75;;;;;10.25;61.44;101859.03;4995180;28;45382;-73
2022/12/02 06:01:55;;;;;;;;;52.25;41.00;;;;;10.14;61.64;101870.13;4995429;28;45408;-73
2022/12/02 06:04:28;;;;;;;;;43.50;36.50;;;;;10.01;62.29;101859.06;4995010;28;47131;-72
2022/12/02 06:06:55;;;;;;;;;41.75;38.25;;;;;9.77;62.20;101811.13;4995218;28;45371;-72
2022/12/02 06:09:26;;;;;;;;;48.75;38.50;;;;;10.17;62.09;101851.34;4986921;28;45436;-71
2022/12/02 06:11:52;;;;;;;;;46.25;38.50;;;;;10.21;61.62;101855.59;4957526;28;45397;-71
2022/12/02 06:14:21;;;;;;;;;40.25;37.00;;;;;10.40;61.88;101866.44;4974859;28;46404;-71
2022/12/02 06:16:50;;;;;;;;;29.75;23.50;;;;;10.42;61.02;101861.91;4975474;28;45315;-71
2022/12/02 06:19:27;;;;;;;;;46.75;37.75;;;;;10.54;61.71;101851.66;4974660;28;45474;-72
2022/12/02 06:21:55;;;;;;;;;47.75;40.50;;;;;10.39;60.92;101808.72;4978983;28;45502;-71
2022/12/02 06:24:28;;;;;;;;;31.75;27.75;;;;;10.44;61.23;101853.84;4977083;28;45733;-70
2022/12/02 06:26:57;;;;;;;;;40.25;34.75;;;;;9.68;61.86;101771.53;4994599;28;45401;-71
2022/12/02 06:29:24;;;;;;;;;43.25;38.25;;;;;10.10;61.84;101853.38;4995013;28;45462;-71
2022/12/02 06:31:50;;;;;;;;;44.25;38.00;;;;;10.15;61.88;101853.22;4994889;28;45548;-71
2022/12/02 06:34:37;;;;;;;;;47.50;37.00;;;;;10.18;62.45;101849.56;4994793;28;45449;-71
2022/12/02 06:37:22;;;;;;;;;39.50;36.00;;;;;10.15;61.77;101845.22;4994651;28;45561;-71
2022/12/02 06:39:54;;;;;;;;;44.75;34.75;;;;;10.17;62.04;101855.81;4994723;28;45501;-71
2022/12/02 06:42:24;;;;;;;;;41.75;32.50;;;;;10.05;62.46;101854.50;4977096;28;45437;-71
2022/12/02 06:45:03;;;;;;;;;49.75;41.00;;;;;10.06;62.65;101851.75;4994491;28;45576;-71
2022/12/02 06:47:31;;;;;;;;;51.50;42.75;;;;;10.23;62.02;101843.09;4980506;28;45559;-71
2022/12/02 06:49:57;;;;;;;;;44.75;36.50;;;;;10.21;62.05;101807.59;4988098;28;45509;-71
2022/12/02 06:52:22;;;;;;;;;43.50;35.50;;;;;10.49;61.31;101829.66;4981278;28;45661;-71
2022/12/02 06:54:50;;;;;;;;;50.25;39.75;;;;;10.48;61.19;101841.25;4992434;28;45527;-71
2022/12/02 06:57:18;;;;;;;;;49.00;37.75;;;;;10.25;61.19;101845.69;4993679;28;45347;-70
2022/12/02 06:59:47;;;;;;;;;54.50;41.00;;;;;9.87;62.26;101805.44;4988546;28;45524;-71
2022/12/02 07:02:25;;;;;;;;;50.75;37.00;;;;;10.06;62.26;101851.75;4994627;28;45498;-71
2022/12/02 07:04:51;;;;;;;;;56.50;46.75;;;;;10.15;62.03;101845.22;4985178;28;45360;-70
2022/12/02 07:07:22;;;;;;;;;55.25;42.75;;;;;10.15;62.31;101849.66;4974578;28;45405;-71
2022/12/02 07:09:59;;;;;;;;;40.25;36.75;;;;;10.27;62.21;101843.81;4974251;28;45431;-71
2022/12/02 07:12:36;;;;;;;;;49.50;36.25;;;;;10.45;61.92;101842.25;4974502;28;45363;-70
2022/12/02 07:15:08;;;;;;;;;45.75;39.00;;;;;10.49;62.03;101840.34;4980017;28;47131;-71
2022/12/02 07:17:42;;;;;;;;;39.25;37.50;;;;;10.40;61.47;101833.56;4979385;28;45491;-70
2022/12/02 07:20:10;;;;;;;;;53.75;41.25;;;;;10.34;61.71;101844.44;4971621;28;45500;-70
2022/12/02 07:22:48;;;;;;;;;45.00;39.75;;;;;10.14;61.76;101840.78;4993013;28;45307;-70
2022/12/02 07:25:16;;;;;;;;;50.00;39.25;;;;;9.88;62.62;101842.69;4994137;28;47104;-70
2022/12/02 07:27:45;;;;;;;;;58.75;43.25;;;;;9.65;63.25;101854.25;4993606;28;45344;-70
2022/12/02 07:30:28;;;;;;;;;45.00;38.75;;;;;8.99;63.98;101745.72;4983427;28;45381;-70
2022/12/02 07:32:53;;;;;;;;;51.00;39.50;;;;;9.86;63.40;101827.69;4994360;28;45748;-71
2022/12/02 07:35:19;;;;;;;;;47.00;39.25;;;;;9.66;63.82;101784.03;4994701;28;45450;-70
2022/12/02 07:37:45;;;;;;;;;54.50;42.00;;;;;9.97;62.97;101833.47;4994787;28;45594;-70
2022/12/02 07:40:12;;;;;;;;;55.50;39.75;;;;;9.93;63.25;101829.19;4993222;28;45512;-69
2022/12/02 07:42:38;;;;;;;;;56.50;46.50;;;;;9.65;63.52;101835.59;4994932;28;45616;-70
2022/12/02 07:45:04;;;;;;;;;64.75;49.50;;;;;9.85;63.68;101844.59;4993698;28;48148;-70
2022/12/02 07:47:31;;;;;;;;;50.00;42.25;;;;;9.71;64.10;101840.66;4977335;28;46168;-70
2022/12/02 07:49:56;;;;;;;;;51.50;41.75;;;;;9.48;64.50;101844.22;4994911;28;45423;-69
2022/12/02 07:52:21;;;;;;;;;44.00;36.50;;;;;9.57;64.54;101843.00;4994461;28;45483;-70
2022/12/02 07:54:47;;;;;;;;;42.75;38.00;;;;;9.64;64.49;101846.31;4993807;28;46169;-70
2022/12/02 07:57:12;;;;;;;;;56.75;43.50;;;;;9.84;64.32;101837.53;4993560;28;45479;-70
2022/12/02 07:59:37;;;;;;;;;55.00;43.00;;;;;9.97;63.44;101841.44;4994141;28;45779;-70
2022/12/02 08:02:03;;;;;;;;;52.50;38.50;;;;;10.03;63.20;101835.91;4994045;28;45654;-70
2022/12/02 08:04:28;;;;;;;;;51.50;44.00;;;;;10.06;62.96;101849.09;4994095;28;46250;-70
2022/12/02 08:06:53;;;;;;;;;48.50;38.75;;;;;10.04;63.49;101842.09;4992728;28;45373;-70
2022/12/02 08:09:19;;;;;;;;;45.75;38.75;;;;;10.06;63.60;101840.25;4994418;28;45692;-70
2022/12/02 08:11:44;;;;;;;;;57.25;46.50;;;;;10.22;63.44;101840.50;4976644;28;45611;-70
2022/12/02 08:14:09;;;;;;;;;51.75;42.25;;;;;10.01;63.46;101834.22;4994130;28;46276;-68
2022/12/02 08:16:35;;;;;;;;;56.00;42.25;;;;;9.92;63.77;101838.13;4994317;28;45367;-77
2022/12/02 08:19:00;;;;;;;;;48.25;41.00;;;;;9.92;63.75;101828.31;4994341;28;45408;-77
2022/12/02 08:21:26;;;;;;;;;57.75;46.75;;;;;9.89;63.57;101840.88;4994472;28;45384;-77
2022/12/02 08:23:52;;;;;;;;;55.75;43.25;;;;;10.01;64.22;101842.22;4993818;28;45328;-76
2022/12/02 08:26:17;;;;;;;;;59.00;46.00;;;;;9.88;63.12;101817.81;4976521;28;45499;-76
2022/12/02 08:28:42;;;;;;;;;61.00;47.25;;;;;9.74;63.97;101856.56;4994211;28;45275;-77
2022/12/02 08:31:08;;;;;;;;;56.00;43.25;;;;;9.22;64.15;101779.47;4976686;28;45522;-77
2022/12/02 08:33:33;;;;;;;;;62.25;48.00;;;;;9.62;64.81;101856.16;4993943;28;45410;-77
2022/12/02 08:35:59;;;;;;;;;54.75;42.75;;;;;9.66;64.29;101855.97;4976383;28;46135;-77
2022/12/02 08:38:24;;;;;;;;;54.25;45.00;;;;;9.87;64.32;101845.44;4994048;28;45387;-77
2022/12/02 08:40:49;;;;;;;;;55.75;44.00;;;;;9.92;64.13;101849.66;4994187;28;45348;-76
2022/12/02 08:43:14;;;;;;;;;51.25;42.50;;;;;10.01;63.66;101831.56;4993815;28;45485;-77
2022/12/02 08:45:40;;;;;;;;;57.00;46.00;;;;;10.00;63.53;101837.81;4993797;28;45439;-76
2022/12/02 08:48:05;;;;;;;;;54.75;42.00;;;;;10.07;63.95;101844.66;4976516;28;45959;-77
2022/12/02 08:50:31;;;;;;;;;53.25;44.75;;;;;9.23;63.48;101724.41;4993817;28;45485;-77
2022/12/02 08:52:56;;;;;;;;;59.25;46.50;;;;;10.14;63.83;101847.94;4993422;28;46239;-77
2022/12/02 08:55:21;;;;;;;;;53.00;41.00;;;;;10.26;64.17;101847.44;4993436;28;50560;-77
2022/12/02 08:57:47;;;;;;;;;60.25;46.25;;;;;10.41;63.47;101845.97;4993595;28;45422;-77
2022/12/02 09:00:13;;;;;;;;;58.25;46.00;;;;;10.17;63.09;101775.81;4993469;28;45432;-77
2022/12/02 09:02:38;;;;;;;;;56.75;47.50;;;;;10.32;62.87;101831.19;4992956;28;46539;-77
2022/12/02 09:05:04;;;;;;;;;60.25;45.50;;;;;10.19;62.98;101832.59;4992628;28;45676;-76
2022/12/02 09:07:29;;;;;;;;;55.00;41.00;;;;;9.67;64.10;101843.53;4992910;28;45736;-76
2022/12/02 09:09:54;;;;;;;;;58.50;45.50;;;;;9.83;63.75;101828.69;4975175;28;45545;-76
2022/12/02 09:12:20;;;;;;;;;35.00;29.75;;;;;10.00;63.67;101829.81;4992968;28;45507;-77
2022/12/02 09:14:45;;;;;;;;;60.50;45.00;;;;;9.99;63.44;101834.28;4993350;28;45495;-77
2022/12/02 09:17:10;;;;;;;;;61.75;48.75;;;;;10.22;63.42;101828.03;4995131;28;45324;-76
2022/12/02 09:19:36;;;;;;;;;56.25;45.75;;;;;10.35;62.99;101835.53;4996885;28;45499;-77
2022/12/02 09:22:01;;;;;;;;;67.50;50.50;;;;;10.17;62.83;101834.47;4995827;28;46061;-77
2022/12/02 09:24:26;;;;;;;;;62.00;49.50;;;;;10.09;63.00;101830.34;4996428;28;45372;-77
2022/12/02 09:26:52;;;;;;;;;59.00;48.25;;;;;9.89;63.71;101832.88;4996864;28;45340;-76
2022/12/02 09:29:17;;;;;;;;;63.50;49.75;;;;;9.98;63.52;101832.53;4979545;28;45617;-77
2022/12/02 09:31:42;;;;;;;;;66.75;48.00;;;;;10.02;63.17;101823.47;4996794;28;47099;-77
2022/12/02 09:34:08;;;;;;;;;55.25;44.00;;;;;9.81;63.77;101835.00;4996835;28;45410;-76
2022/12/02 09:36:33;;;;;;;;;57.75;46.25;;;;;9.88;64.28;101825.81;4996912;28;45397;-76
2022/12/02 09:38:59;;;;;;;;;55.50;45.75;;;;;9.86;63.48;101827.69;4997017;28;45379;-77
2022/12/02 09:41:24;;;;;;;;;59.25;48.00;;;;;9.83;63.75;101836.66;4996614;28;47329;-77
2022/12/02 09:43:49;;;;;;;;;61.00;48.25;;;;;9.79;63.53;101832.38;4996440;28;45465;-77
2022/12/02 09:46:15;;;;;;;;;56.25;45.75;;;;;10.02;63.86;101818.16;4996714;28;45356;-77
2022/12/02 09:48:40;;;;;;;;;58.75;46.00;;;;;10.06;62.85;101814.44;4996678;28;45796;-77
2022/12/02 09:51:08;;;;;;;;;65.25;50.75;;;;;10.07;63.10;101813.50;4978480;28;45493;-77
2022/12/02 09:53:37;;;;;;;;;59.00;47.50;;;;;9.83;63.07;101754.06;4996178;28;45498;-77
2022/12/02 09:56:03;;;;;;;;;53.75;44.00;;;;;10.32;63.08;101807.16;4996821;28;45359;-77
2022/12/02 09:58:30;;;;;;;;;62.25;47.75;;;;;10.37;62.26;101807.03;4996428;28;45318;-77
2022/12/02 10:00:55;;;;;;;;;61.75;49.00;;;;;10.36;62.95;101819.47;4996213;28;45574;-77
2022/12/02 10:03:24;;;;;;;;;49.00;41.75;;;;;10.08;62.72;101793.03;4996371;28;45438;-77
2022/12/02 10:05:50;;;;;;;;;62.75;49.00;;;;;10.19;62.43;101798.81;4996161;28;45292;-77
2022/12/02 10:08:22;;;;;;;;;51.25;43.25;;;;;10.03;62.34;101790.56;4996336;28;45506;-77
2022/12/02 10:10:49;;;;;;;;;55.00;43.25;;;;;10.04;63.23;101815.41;4996105;28;46622;-77
2022/12/02 10:13:17;;;;;;;;;58.00;47.75;;;;;9.93;63.57;101802.53;4995837;28;45438;-77
2022/12/02 10:15:43;;;;;;;;;54.25;46.00;;;;;9.96;63.10;101799.75;4993065;28;45321;-77
2022/12/02 10:18:16;;;;;;;;;60.25;47.00;;;;;9.88;63.19;101801.81;4985477;28;45619;-70
2022/12/02 10:20:41;;;;;;;;;58.50;47.25;;;;;9.90;63.11;101813.31;4995287;28;45405;-70
2022/12/02 10:23:16;;;;;;;;;66.75;48.75;;;;;9.34;64.21;101769.28;4995310;28;45303;-70
2022/12/02 10:25:47;;;;;;;;;65.25;49.25;;;;;9.64;64.48;101807.22;4995269;28;45371;-70
2022/12/02 10:28:32;;;;;;;;;57.00;46.25;;;;;9.49;64.50;101797.13;4994384;28;45732;-70
2022/12/02 10:31:03;;;;;;;;;57.00;44.50;;;;;9.68;63.96;101798.16;4995287;28;45374;-70
2022/12/02 10:33:31;;;;;;;;;67.75;50.50;;;;;9.51;64.40;101789.94;4994969;28;45432;-70
2022/12/02 10:35:58;;;;;;;;;61.50;49.50;;;;;9.59;64.17;101777.19;4995720;28;45556;-69
2022/12/02 10:38:45;;;;;;;;;62.75;49.50;;;;;9.67;64.17;101785.75;4995695;28;45951;-70
2022/12/02 10:41:13;;;;;;;;;61.50;48.75;;;;;9.88;63.94;101783.19;4995427;28;45683;-70
2022/12/02 10:43:43;;;;;;;;;60.50;50.00;;;;;9.84;63.75;101781.56;4995185;28;45343;-69
2022/12/02 10:46:15;;;;;;;;;64.50;48.50;;;;;9.97;63.30;101769.47;4996078;28;45477;-70
2022/12/02 10:48:41;;;;;;;;;65.50;50.25;;;;;10.16;63.12;101763.41;4995351;28;45398;-70
2022/12/02 10:51:15;;;;;;;;;67.00;50.00;;;;;10.18;62.48;101767.75;4995154;28;45384;-70
2022/12/02 10:53:42;;;;;;;;;56.75;46.25;;;;;10.39;63.44;101767.81;4994877;28;45641;-70
2022/12/02 10:56:16;;;;;;;;;61.75;47.00;;;;;10.17;63.21;101693.16;4995195;28;45501;-70
2022/12/02 10:58:42;;;;;;;;;55.75;47.50;;;;;10.65;63.30;101758.69;4983717;28;45850;-70
2022/12/02 11:01:10;;;;;;;;;65.00;51.75;;;;;10.63;62.67;101739.22;4989488;28;45813;-70
2022/12/02 11:03:36;;;;;;;;;66.00;50.50;;;;;10.67;61.11;101751.47;4994170;28;45383;-70
2022/12/02 11:06:04;;;;;;;;;63.00;47.00;;;;;10.40;61.47;101733.06;4994997;28;45423;-70
2022/12/02 11:08:30;;;;;;;;;60.75;49.75;;;;;10.43;61.46;101745.41;4994536;28;45458;-69
2022/12/02 11:11:13;;;;;;;;;63.25;51.25;;;;;10.50;61.42;101738.91;4994515;28;46040;-70
2022/12/02 11:13:48;;;;;;;;;64.00;52.25;;;;;10.37;61.82;101743.00;4994075;28;45366;-70
2022/12/02 11:16:33;;;;;;;;;62.00;49.00;;;;;10.33;62.94;101736.03;4989387;28;45396;-70